sensor_id;sensor_type;location;lat;lon;timestamp;temperature;humidity
19680;DHT22;9989;48.962;9.182;2022-08-01T00:00:36;22.90;76.10
19680;DHT22;9989;48.962;9.182;2022-08-01T00:03:02;22.80;76.10
19680;DHT22;9989;48.962;9.182;2022-08-01T00:05:28;22.70;76.40
19680;DHT22;9989;48.962;9.182;2022-08-01T00:07:56;22.70;76.80
19680;DHT22;9989;48.962;9.182;2022-08-01T00:10:22;22.70;76.80
19680;DHT22;9989;48.962;9.182;2022-08-01T00:12:48;22.60;76.80
19680;DHT22;9989;48.962;9.182;2022-08-01T00:15:15;22.60;77.00
19680;DHT22;9989;48.962;9.182;2022-08-01T00:17:42;22.60;77.10
19680;DHT22;9989;48.962;9.182;2022-08-01T00:20:10;22.50;77.50
19680;DHT22;9989;48.962;9.182;2022-08-01T00:22:36;22.50;77.50
19680;DHT22;9989;48.962;9.182;2022-08-01T00:25:02;22.50;77.90
19680;DHT22;9989;48.962;9.182;2022-08-01T00:27:28;22.40;78.10
19680;DHT22;9989;48.962;9.182;2022-08-01T00:29:54;22.40;78.20
19680;DHT22;9989;48.962;9.182;2022-08-01T00:32:19;22.30;78.40
19680;DHT22;9989;48.962;9.182;2022-08-01T00:34:45;22.30;78.60
19680;DHT22;9989;48.962;9.182;2022-08-01T00:37:11;22.30;78.80
19680;DHT22;9989;48.962;9.182;2022-08-01T00:39:36;22.30;79.00
19680;DHT22;9989;48.962;9.182;2022-08-01T00:42:10;22.30;79.20
19680;DHT22;9989;48.962;9.182;2022-08-01T00:44:36;22.30;79.30
19680;DHT22;9989;48.962;9.182;2022-08-01T00:47:03;22.20;79.50
19680;DHT22;9989;48.962;9.182;2022-08-01T00:49:29;22.20;79.80
19680;DHT22;9989;48.962;9.182;2022-08-01T00:51:56;22.10;80.70
19680;DHT22;9989;48.962;9.182;2022-08-01T00:54:24;22.10;80.10
19680;DHT22;9989;48.962;9.182;2022-08-01T00:56:50;22.10;80.30
19680;DHT22;9989;48.962;9.182;2022-08-01T00:59:17;22.00;80.50
19680;DHT22;9989;48.962;9.182;2022-08-01T01:01:43;22.00;80.60
19680;DHT22;9989;48.962;9.182;2022-08-01T01:04:08;22.00;80.90
19680;DHT22;9989;48.962;9.182;2022-08-01T01:14:30;21.80;81.80
19680;DHT22;9989;48.962;9.182;2022-08-01T01:17:00;21.80;81.90
19680;DHT22;9989;48.962;9.182;2022-08-01T01:19:30;21.80;82.30
19680;DHT22;9989;48.962;9.182;2022-08-01T01:24:45;21.70;82.60
19680;DHT22;9989;48.962;9.182;2022-08-01T01:27:44;21.70;82.90
19680;DHT22;9989;48.962;9.182;2022-08-01T01:30:11;21.70;83.10
19680;DHT22;9989;48.962;9.182;2022-08-01T01:32:43;21.60;83.30
19680;DHT22;9989;48.962;9.182;2022-08-01T01:35:15;21.60;83.60
19680;DHT22;9989;48.962;9.182;2022-08-01T01:37:44;21.50;84.70
19680;DHT22;9989;48.962;9.182;2022-08-01T01:40:12;21.50;84.20
19680;DHT22;9989;48.962;9.182;2022-08-01T01:42:39;21.50;84.50
19680;DHT22;9989;48.962;9.182;2022-08-01T01:45:07;21.50;84.70
19680;DHT22;9989;48.962;9.182;2022-08-01T01:47:34;21.50;84.80
19680;DHT22;9989;48.962;9.182;2022-08-01T01:50:02;21.40;84.90
19680;DHT22;9989;48.962;9.182;2022-08-01T01:52:29;21.40;85.20
19680;DHT22;9989;48.962;9.182;2022-08-01T01:54:56;21.40;85.40
19680;DHT22;9989;48.962;9.182;2022-08-01T01:57:24;21.40;85.40
19680;DHT22;9989;48.962;9.182;2022-08-01T01:59:51;21.40;85.60
19680;DHT22;9989;48.962;9.182;2022-08-01T02:02:19;21.40;85.80
19680;DHT22;9989;48.962;9.182;2022-08-01T02:04:46;21.30;85.90
19680;DHT22;9989;48.962;9.182;2022-08-01T02:07:16;21.30;86.10
19680;DHT22;9989;48.962;9.182;2022-08-01T02:09:43;21.30;86.40
19680;DHT22;9989;48.962;9.182;2022-08-01T02:12:12;21.30;86.40
19680;DHT22;9989;48.962;9.182;2022-08-01T02:14:38;21.30;86.70
19680;DHT22;9989;48.962;9.182;2022-08-01T02:17:10;21.30;86.90
19680;DHT22;9989;48.962;9.182;2022-08-01T02:19:37;21.30;87.00
19680;DHT22;9989;48.962;9.182;2022-08-01T02:22:18;21.30;87.20
19680;DHT22;9989;48.962;9.182;2022-08-01T02:24:52;21.30;87.50
19680;DHT22;9989;48.962;9.182;2022-08-01T02:27:24;21.30;87.60
19680;DHT22;9989;48.962;9.182;2022-08-01T02:30:03;21.30;87.90
19680;DHT22;9989;48.962;9.182;2022-08-01T02:32:44;21.30;88.10
19680;DHT22;9989;48.962;9.182;2022-08-01T02:35:20;21.30;88.30
19680;DHT22;9989;48.962;9.182;2022-08-01T02:37:48;21.20;88.40
19680;DHT22;9989;48.962;9.182;2022-08-01T02:40:15;21.20;89.40
19680;DHT22;9989;48.962;9.182;2022-08-01T02:42:45;21.20;88.80
19680;DHT22;9989;48.962;9.182;2022-08-01T02:45:12;21.20;89.00
19680;DHT22;9989;48.962;9.182;2022-08-01T02:47:40;21.10;89.30
19680;DHT22;9989;48.962;9.182;2022-08-01T02:50:07;21.10;89.50
19680;DHT22;9989;48.962;9.182;2022-08-01T02:52:36;21.10;89.60
19680;DHT22;9989;48.962;9.182;2022-08-01T02:55:02;21.10;89.80
19680;DHT22;9989;48.962;9.182;2022-08-01T02:57:30;21.10;89.90
19680;DHT22;9989;48.962;9.182;2022-08-01T02:59:57;21.00;90.10
19680;DHT22;9989;48.962;9.182;2022-08-01T03:02:24;21.00;90.20
19680;DHT22;9989;48.962;9.182;2022-08-01T03:04:50;21.00;90.30
19680;DHT22;9989;48.962;9.182;2022-08-01T03:07:18;20.90;90.50
19680;DHT22;9989;48.962;9.182;2022-08-01T03:09:45;20.90;90.60
19680;DHT22;9989;48.962;9.182;2022-08-01T03:12:24;20.80;90.70
19680;DHT22;9989;48.962;9.182;2022-08-01T03:14:52;20.80;90.90
19680;DHT22;9989;48.962;9.182;2022-08-01T03:17:21;20.80;91.00
19680;DHT22;9989;48.962;9.182;2022-08-01T03:19:48;20.80;91.10
19680;DHT22;9989;48.962;9.182;2022-08-01T03:22:16;20.80;91.30
19680;DHT22;9989;48.962;9.182;2022-08-01T03:24:42;20.80;91.40
19680;DHT22;9989;48.962;9.182;2022-08-01T03:27:10;20.80;91.40
19680;DHT22;9989;48.962;9.182;2022-08-01T03:29:37;20.70;91.50
19680;DHT22;9989;48.962;9.182;2022-08-01T03:32:05;20.70;91.70
19680;DHT22;9989;48.962;9.182;2022-08-01T03:34:31;20.70;91.90
19680;DHT22;9989;48.962;9.182;2022-08-01T03:37:07;20.70;92.00
19680;DHT22;9989;48.962;9.182;2022-08-01T03:39:42;20.60;92.10
19680;DHT22;9989;48.962;9.182;2022-08-01T03:42:14;20.60;92.20
19680;DHT22;9989;48.962;9.182;2022-08-01T03:44:41;20.60;92.40
19680;DHT22;9989;48.962;9.182;2022-08-01T03:47:10;20.60;92.50
19680;DHT22;9989;48.962;9.182;2022-08-01T03:49:41;20.60;92.60
19680;DHT22;9989;48.962;9.182;2022-08-01T03:52:08;20.50;92.70
19680;DHT22;9989;48.962;9.182;2022-08-01T03:54:41;20.50;92.80
19680;DHT22;9989;48.962;9.182;2022-08-01T03:57:10;20.50;93.00
19680;DHT22;9989;48.962;9.182;2022-08-01T03:59:36;20.50;93.10
19680;DHT22;9989;48.962;9.182;2022-08-01T04:02:03;20.50;93.20
19680;DHT22;9989;48.962;9.182;2022-08-01T04:04:30;20.50;93.30
19680;DHT22;9989;48.962;9.182;2022-08-01T04:06:56;20.50;93.40
19680;DHT22;9989;48.962;9.182;2022-08-01T04:09:22;20.50;93.60
19680;DHT22;9989;48.962;9.182;2022-08-01T04:11:47;20.50;93.70
19680;DHT22;9989;48.962;9.182;2022-08-01T04:14:14;20.50;93.90
19680;DHT22;9989;48.962;9.182;2022-08-01T04:16:39;20.40;93.90
19680;DHT22;9989;48.962;9.182;2022-08-01T04:19:05;20.40;94.00
19680;DHT22;9989;48.962;9.182;2022-08-01T04:21:34;20.40;94.20
19680;DHT22;9989;48.962;9.182;2022-08-01T04:24:08;20.40;94.40
19680;DHT22;9989;48.962;9.182;2022-08-01T04:26:36;20.40;94.50
19680;DHT22;9989;48.962;9.182;2022-08-01T04:29:04;20.40;94.60
19680;DHT22;9989;48.962;9.182;2022-08-01T04:31:32;20.40;94.80
19680;DHT22;9989;48.962;9.182;2022-08-01T04:34:00;20.40;95.00
19680;DHT22;9989;48.962;9.182;2022-08-01T04:36:28;20.40;95.10
19680;DHT22;9989;48.962;9.182;2022-08-01T04:38:59;20.40;95.20
19680;DHT22;9989;48.962;9.182;2022-08-01T04:41:26;20.50;95.30
19680;DHT22;9989;48.962;9.182;2022-08-01T04:43:52;20.50;95.30
19680;DHT22;9989;48.962;9.182;2022-08-01T04:46:19;20.50;95.30
19680;DHT22;9989;48.962;9.182;2022-08-01T04:48:45;20.60;95.50
19680;DHT22;9989;48.962;9.182;2022-08-01T04:51:13;20.60;95.70
19680;DHT22;9989;48.962;9.182;2022-08-01T04:53:40;20.70;95.70
19680;DHT22;9989;48.962;9.182;2022-08-01T04:56:06;20.70;95.80
19680;DHT22;9989;48.962;9.182;2022-08-01T04:58:32;20.80;95.70
19680;DHT22;9989;48.962;9.182;2022-08-01T05:00:57;20.90;95.80
19680;DHT22;9989;48.962;9.182;2022-08-01T05:03:23;20.90;95.80
19680;DHT22;9989;48.962;9.182;2022-08-01T05:05:48;21.00;95.80
19680;DHT22;9989;48.962;9.182;2022-08-01T05:08:14;21.00;95.80
19680;DHT22;9989;48.962;9.182;2022-08-01T05:10:41;21.10;95.80
19680;DHT22;9989;48.962;9.182;2022-08-01T05:13:08;21.20;95.90
19680;DHT22;9989;48.962;9.182;2022-08-01T05:15:37;21.20;95.90
19680;DHT22;9989;48.962;9.182;2022-08-01T05:18:03;21.20;95.90
19680;DHT22;9989;48.962;9.182;2022-08-01T05:20:28;21.20;95.90
19680;DHT22;9989;48.962;9.182;2022-08-01T05:22:54;21.30;95.90
19680;DHT22;9989;48.962;9.182;2022-08-01T05:25:20;21.30;95.90
19680;DHT22;9989;48.962;9.182;2022-08-01T05:27:45;21.40;95.90
19680;DHT22;9989;48.962;9.182;2022-08-01T05:30:11;21.50;96.00
19680;DHT22;9989;48.962;9.182;2022-08-01T05:32:37;21.50;96.00
19680;DHT22;9989;48.962;9.182;2022-08-01T05:35:03;21.70;96.00
19680;DHT22;9989;48.962;9.182;2022-08-01T05:37:29;21.70;95.90
19680;DHT22;9989;48.962;9.182;2022-08-01T05:39:55;21.80;95.80
19680;DHT22;9989;48.962;9.182;2022-08-01T05:42:21;21.90;95.70
19680;DHT22;9989;48.962;9.182;2022-08-01T05:44:46;21.90;95.60
19680;DHT22;9989;48.962;9.182;2022-08-01T05:47:13;22.00;95.50
19680;DHT22;9989;48.962;9.182;2022-08-01T05:49:38;22.10;95.50
19680;DHT22;9989;48.962;9.182;2022-08-01T05:52:04;22.10;95.60
19680;DHT22;9989;48.962;9.182;2022-08-01T05:54:30;22.20;95.70
19680;DHT22;9989;48.962;9.182;2022-08-01T05:56:56;22.40;95.30
19680;DHT22;9989;48.962;9.182;2022-08-01T05:59:25;22.40;95.20
19680;DHT22;9989;48.962;9.182;2022-08-01T06:01:51;22.50;95.20
19680;DHT22;9989;48.962;9.182;2022-08-01T06:04:16;22.60;95.10
19680;DHT22;9989;48.962;9.182;2022-08-01T06:06:42;22.60;95.20
19680;DHT22;9989;48.962;9.182;2022-08-01T06:09:07;22.70;95.10
19680;DHT22;9989;48.962;9.182;2022-08-01T06:11:33;22.80;95.00
19680;DHT22;9989;48.962;9.182;2022-08-01T06:13:59;22.90;95.00
19680;DHT22;9989;48.962;9.182;2022-08-01T06:16:24;22.90;94.90
19680;DHT22;9989;48.962;9.182;2022-08-01T06:18:50;22.90;94.90
19680;DHT22;9989;48.962;9.182;2022-08-01T06:21:15;22.90;95.00
19680;DHT22;9989;48.962;9.182;2022-08-01T06:23:41;23.00;95.20
19680;DHT22;9989;48.962;9.182;2022-08-01T06:26:09;23.00;95.10
19680;DHT22;9989;48.962;9.182;2022-08-01T06:28:35;23.10;95.10
19680;DHT22;9989;48.962;9.182;2022-08-01T06:31:01;23.10;95.20
19680;DHT22;9989;48.962;9.182;2022-08-01T06:33:27;23.20;95.30
19680;DHT22;9989;48.962;9.182;2022-08-01T06:35:52;23.30;95.20
19680;DHT22;9989;48.962;9.182;2022-08-01T06:38:18;23.40;95.00
19680;DHT22;9989;48.962;9.182;2022-08-01T06:40:44;23.50;94.80
19680;DHT22;9989;48.962;9.182;2022-08-01T06:43:09;23.50;94.60
19680;DHT22;9989;48.962;9.182;2022-08-01T06:45:37;23.70;94.60
19680;DHT22;9989;48.962;9.182;2022-08-01T06:48:03;23.70;94.90
19680;DHT22;9989;48.962;9.182;2022-08-01T06:50:29;23.80;94.50
19680;DHT22;9989;48.962;9.182;2022-08-01T06:52:54;23.90;94.20
19680;DHT22;9989;48.962;9.182;2022-08-01T06:55:20;24.00;94.10
19680;DHT22;9989;48.962;9.182;2022-08-01T06:57:47;24.10;93.90
19680;DHT22;9989;48.962;9.182;2022-08-01T07:00:13;24.20;93.70
19680;DHT22;9989;48.962;9.182;2022-08-01T07:02:39;24.30;93.70
19680;DHT22;9989;48.962;9.182;2022-08-01T07:05:06;24.30;93.60
19680;DHT22;9989;48.962;9.182;2022-08-01T07:07:32;24.30;93.40
19680;DHT22;9989;48.962;9.182;2022-08-01T07:09:57;24.30;93.60
19680;DHT22;9989;48.962;9.182;2022-08-01T07:12:23;24.30;93.80
19680;DHT22;9989;48.962;9.182;2022-08-01T07:14:49;24.30;93.70
19680;DHT22;9989;48.962;9.182;2022-08-01T07:17:14;24.30;93.60
19680;DHT22;9989;48.962;9.182;2022-08-01T07:19:40;24.40;93.60
19680;DHT22;9989;48.962;9.182;2022-08-01T07:22:06;24.40;93.60
19680;DHT22;9989;48.962;9.182;2022-08-01T07:24:31;24.60;93.60
19680;DHT22;9989;48.962;9.182;2022-08-01T07:26:57;24.70;93.40
19680;DHT22;9989;48.962;9.182;2022-08-01T07:29:26;24.90;92.80
19680;DHT22;9989;48.962;9.182;2022-08-01T07:31:53;25.00;92.60
19680;DHT22;9989;48.962;9.182;2022-08-01T07:34:19;25.10;92.60
19680;DHT22;9989;48.962;9.182;2022-08-01T07:36:45;25.10;92.50
19680;DHT22;9989;48.962;9.182;2022-08-01T07:39:11;25.20;92.20
19680;DHT22;9989;48.962;9.182;2022-08-01T07:41:36;25.20;92.20
19680;DHT22;9989;48.962;9.182;2022-08-01T07:44:02;25.30;92.60
19680;DHT22;9989;48.962;9.182;2022-08-01T07:46:28;25.30;92.30
19680;DHT22;9989;48.962;9.182;2022-08-01T07:48:55;25.40;92.30
19680;DHT22;9989;48.962;9.182;2022-08-01T07:51:21;25.50;92.20
19680;DHT22;9989;48.962;9.182;2022-08-01T07:53:47;25.60;92.20
19680;DHT22;9989;48.962;9.182;2022-08-01T07:56:13;25.70;91.80
19680;DHT22;9989;48.962;9.182;2022-08-01T07:58:38;25.80;91.30
19680;DHT22;9989;48.962;9.182;2022-08-01T08:01:04;25.90;91.30
19680;DHT22;9989;48.962;9.182;2022-08-01T08:03:33;26.00;90.80
19680;DHT22;9989;48.962;9.182;2022-08-01T08:05:58;26.00;90.90
19680;DHT22;9989;48.962;9.182;2022-08-01T08:08:24;26.10;90.80
19680;DHT22;9989;48.962;9.182;2022-08-01T08:10:50;26.10;90.40
19680;DHT22;9989;48.962;9.182;2022-08-01T08:13:15;26.00;90.40
19680;DHT22;9989;48.962;9.182;2022-08-01T08:15:41;26.10;90.60
19680;DHT22;9989;48.962;9.182;2022-08-01T08:18:07;26.20;90.60
19680;DHT22;9989;48.962;9.182;2022-08-01T08:20:32;26.30;90.20
19680;DHT22;9989;48.962;9.182;2022-08-01T08:22:58;26.40;90.20
19680;DHT22;9989;48.962;9.182;2022-08-01T08:25:25;26.50;89.40
19680;DHT22;9989;48.962;9.182;2022-08-01T08:27:51;26.60;88.60
19680;DHT22;9989;48.962;9.182;2022-08-01T08:30:17;26.60;88.60
19680;DHT22;9989;48.962;9.182;2022-08-01T08:32:43;26.60;88.90
19680;DHT22;9989;48.962;9.182;2022-08-01T08:35:09;26.60;88.10
19680;DHT22;9989;48.962;9.182;2022-08-01T08:37:36;26.60;88.60
19680;DHT22;9989;48.962;9.182;2022-08-01T08:40:04;26.60;88.60
19680;DHT22;9989;48.962;9.182;2022-08-01T08:42:30;26.70;88.20
19680;DHT22;9989;48.962;9.182;2022-08-01T08:44:55;26.60;88.90
19680;DHT22;9989;48.962;9.182;2022-08-01T08:47:22;26.60;88.10
19680;DHT22;9989;48.962;9.182;2022-08-01T08:49:52;26.60;88.10
19680;DHT22;9989;48.962;9.182;2022-08-01T08:52:20;26.60;88.70
19680;DHT22;9989;48.962;9.182;2022-08-01T08:54:47;26.70;88.40
19680;DHT22;9989;48.962;9.182;2022-08-01T08:57:14;26.70;88.30
19680;DHT22;9989;48.962;9.182;2022-08-01T08:59:42;26.80;88.10
19680;DHT22;9989;48.962;9.182;2022-08-01T09:02:08;26.80;88.20
19680;DHT22;9989;48.962;9.182;2022-08-01T09:04:36;26.80;87.50
19680;DHT22;9989;48.962;9.182;2022-08-01T09:07:04;26.80;88.00
19680;DHT22;9989;48.962;9.182;2022-08-01T09:09:30;26.90;87.80
19680;DHT22;9989;48.962;9.182;2022-08-01T09:11:55;27.00;88.50
19680;DHT22;9989;48.962;9.182;2022-08-01T09:14:22;27.10;86.80
19680;DHT22;9989;48.962;9.182;2022-08-01T09:17:06;27.10;86.90
19680;DHT22;9989;48.962;9.182;2022-08-01T09:19:47;27.20;87.30
19680;DHT22;9989;48.962;9.182;2022-08-01T09:22:18;27.30;86.20
19680;DHT22;9989;48.962;9.182;2022-08-01T09:25:06;27.40;84.90
19680;DHT22;9989;48.962;9.182;2022-08-01T09:27:33;27.40;84.20
19680;DHT22;9989;48.962;9.182;2022-08-01T09:30:18;27.40;84.30
19680;DHT22;9989;48.962;9.182;2022-08-01T09:33:02;27.40;84.20
19680;DHT22;9989;48.962;9.182;2022-08-01T09:35:32;27.40;85.60
19680;DHT22;9989;48.962;9.182;2022-08-01T09:38:18;27.40;85.10
19680;DHT22;9989;48.962;9.182;2022-08-01T09:40:57;27.50;84.80
19680;DHT22;9989;48.962;9.182;2022-08-01T09:43:27;27.50;84.60
19680;DHT22;9989;48.962;9.182;2022-08-01T09:45:56;27.60;84.40
19680;DHT22;9989;48.962;9.182;2022-08-01T09:48:22;27.70;84.60
19680;DHT22;9989;48.962;9.182;2022-08-01T09:50:53;27.80;84.10
19680;DHT22;9989;48.962;9.182;2022-08-01T09:53:19;27.90;83.50
19680;DHT22;9989;48.962;9.182;2022-08-01T09:55:45;27.90;82.90
19680;DHT22;9989;48.962;9.182;2022-08-01T09:58:11;27.90;82.40
19680;DHT22;9989;48.962;9.182;2022-08-01T10:00:38;27.90;82.50
19680;DHT22;9989;48.962;9.182;2022-08-01T10:03:23;27.90;82.80
19680;DHT22;9989;48.962;9.182;2022-08-01T10:05:49;27.90;82.10
19680;DHT22;9989;48.962;9.182;2022-08-01T10:08:17;27.90;81.80
19680;DHT22;9989;48.962;9.182;2022-08-01T10:11:11;27.90;81.50
19680;DHT22;9989;48.962;9.182;2022-08-01T10:13:37;28.00;82.00
19680;DHT22;9989;48.962;9.182;2022-08-01T10:16:05;28.10;82.10
19680;DHT22;9989;48.962;9.182;2022-08-01T10:18:33;28.10;81.20
19680;DHT22;9989;48.962;9.182;2022-08-01T10:21:02;28.10;81.50
19680;DHT22;9989;48.962;9.182;2022-08-01T10:23:33;28.20;81.60
19680;DHT22;9989;48.962;9.182;2022-08-01T10:25:58;28.30;81.50
19680;DHT22;9989;48.962;9.182;2022-08-01T10:28:25;28.30;80.60
19680;DHT22;9989;48.962;9.182;2022-08-01T10:30:52;28.40;82.10
19680;DHT22;9989;48.962;9.182;2022-08-01T10:33:18;28.50;80.60
19680;DHT22;9989;48.962;9.182;2022-08-01T10:35:45;28.60;78.10
19680;DHT22;9989;48.962;9.182;2022-08-01T10:38:11;28.60;78.90
19680;DHT22;9989;48.962;9.182;2022-08-01T10:40:38;28.60;77.30
19680;DHT22;9989;48.962;9.182;2022-08-01T10:43:04;28.60;77.70
19680;DHT22;9989;48.962;9.182;2022-08-01T10:45:30;28.60;79.20
19680;DHT22;9989;48.962;9.182;2022-08-01T10:48:02;28.70;79.80
19680;DHT22;9989;48.962;9.182;2022-08-01T10:50:39;28.90;79.10
19680;DHT22;9989;48.962;9.182;2022-08-01T10:53:10;29.10;78.80
19680;DHT22;9989;48.962;9.182;2022-08-01T10:56:01;29.30;77.60
19680;DHT22;9989;48.962;9.182;2022-08-01T10:58:37;29.40;76.00
19680;DHT22;9989;48.962;9.182;2022-08-01T11:01:26;29.40;76.00
19680;DHT22;9989;48.962;9.182;2022-08-01T11:17:34;29.50;75.80
19680;DHT22;9989;48.962;9.182;2022-08-01T11:20:10;29.60;73.80
19680;DHT22;9989;48.962;9.182;2022-08-01T11:31:25;29.90;74.80
19680;DHT22;9989;48.962;9.182;2022-08-01T11:33:48;30.00;74.40
19680;DHT22;9989;48.962;9.182;2022-08-01T11:38:46;30.50;73.00
19680;DHT22;9989;48.962;9.182;2022-08-01T11:41:23;30.50;72.50
19680;DHT22;9989;48.962;9.182;2022-08-01T11:44:02;30.50;71.80
19680;DHT22;9989;48.962;9.182;2022-08-01T11:52:27;30.70;71.90
19680;DHT22;9989;48.962;9.182;2022-08-01T11:54:55;30.90;69.80
19680;DHT22;9989;48.962;9.182;2022-08-01T11:57:27;31.00;70.50
19680;DHT22;9989;48.962;9.182;2022-08-01T11:59:58;31.10;69.50
19680;DHT22;9989;48.962;9.182;2022-08-01T12:07:22;31.20;68.40
19680;DHT22;9989;48.962;9.182;2022-08-01T12:09:51;31.20;68.10
19680;DHT22;9989;48.962;9.182;2022-08-01T12:12:21;31.30;69.30
19680;DHT22;9989;48.962;9.182;2022-08-01T12:14:56;31.50;69.30
19680;DHT22;9989;48.962;9.182;2022-08-01T12:19:55;32.00;67.90
19680;DHT22;9989;48.962;9.182;2022-08-01T12:22:23;32.20;66.00
19680;DHT22;9989;48.962;9.182;2022-08-01T12:24:49;32.30;63.50
19680;DHT22;9989;48.962;9.182;2022-08-01T12:27:28;32.20;62.90
19680;DHT22;9989;48.962;9.182;2022-08-01T12:29:56;32.20;63.20
19680;DHT22;9989;48.962;9.182;2022-08-01T12:32:27;32.20;63.20
19680;DHT22;9989;48.962;9.182;2022-08-01T12:34:55;32.30;63.40
19680;DHT22;9989;48.962;9.182;2022-08-01T12:37:22;32.30;63.50
19680;DHT22;9989;48.962;9.182;2022-08-01T12:39:47;32.40;64.90
19680;DHT22;9989;48.962;9.182;2022-08-01T12:42:14;32.50;62.90
19680;DHT22;9989;48.962;9.182;2022-08-01T12:44:42;32.40;62.80
19680;DHT22;9989;48.962;9.182;2022-08-01T12:47:10;32.50;63.60
19680;DHT22;9989;48.962;9.182;2022-08-01T12:49:37;32.40;64.00
19680;DHT22;9989;48.962;9.182;2022-08-01T12:52:04;32.40;63.70
19680;DHT22;9989;48.962;9.182;2022-08-01T12:54:29;32.50;64.10
19680;DHT22;9989;48.962;9.182;2022-08-01T12:56:55;32.60;64.20
19680;DHT22;9989;48.962;9.182;2022-08-01T12:59:27;32.70;64.20
19680;DHT22;9989;48.962;9.182;2022-08-01T13:01:54;32.80;63.30
19680;DHT22;9989;48.962;9.182;2022-08-01T13:04:21;32.80;62.10
19680;DHT22;9989;48.962;9.182;2022-08-01T13:06:48;32.70;61.50
19680;DHT22;9989;48.962;9.182;2022-08-01T13:09:14;32.40;62.10
19680;DHT22;9989;48.962;9.182;2022-08-01T13:11:40;32.30;63.20
19680;DHT22;9989;48.962;9.182;2022-08-01T13:14:06;32.10;63.50
19680;DHT22;9989;48.962;9.182;2022-08-01T13:16:32;31.90;63.70
19680;DHT22;9989;48.962;9.182;2022-08-01T13:18:58;31.80;63.60
19680;DHT22;9989;48.962;9.182;2022-08-01T13:21:26;31.60;64.10
19680;DHT22;9989;48.962;9.182;2022-08-01T13:24:09;31.40;64.60
19680;DHT22;9989;48.962;9.182;2022-08-01T13:29:09;31.20;65.10
19680;DHT22;9989;48.962;9.182;2022-08-01T13:31:36;31.10;66.00
19680;DHT22;9989;48.962;9.182;2022-08-01T13:34:03;31.00;66.20
19680;DHT22;9989;48.962;9.182;2022-08-01T13:36:29;30.90;67.30
19680;DHT22;9989;48.962;9.182;2022-08-01T13:38:57;31.10;67.10
19680;DHT22;9989;48.962;9.182;2022-08-01T13:41:41;31.10;66.60
19680;DHT22;9989;48.962;9.182;2022-08-01T13:44:07;31.20;66.70
19680;DHT22;9989;48.962;9.182;2022-08-01T13:46:34;31.20;66.40
19680;DHT22;9989;48.962;9.182;2022-08-01T13:49:01;31.20;66.20
19680;DHT22;9989;48.962;9.182;2022-08-01T13:51:26;31.20;65.80
19680;DHT22;9989;48.962;9.182;2022-08-01T13:53:52;31.20;66.90
19680;DHT22;9989;48.962;9.182;2022-08-01T13:56:18;31.30;66.00
19680;DHT22;9989;48.962;9.182;2022-08-01T13:58:45;31.40;66.30
19680;DHT22;9989;48.962;9.182;2022-08-01T14:01:11;31.50;66.40
19680;DHT22;9989;48.962;9.182;2022-08-01T14:03:37;31.50;65.40
19680;DHT22;9989;48.962;9.182;2022-08-01T14:06:03;31.50;65.10
19680;DHT22;9989;48.962;9.182;2022-08-01T14:08:29;31.60;65.90
19680;DHT22;9989;48.962;9.182;2022-08-01T14:10:55;31.60;64.50
19680;DHT22;9989;48.962;9.182;2022-08-01T14:13:24;31.60;64.60
19680;DHT22;9989;48.962;9.182;2022-08-01T14:15:50;31.70;64.90
19680;DHT22;9989;48.962;9.182;2022-08-01T14:18:16;31.70;64.90
19680;DHT22;9989;48.962;9.182;2022-08-01T14:20:41;31.80;64.20
19680;DHT22;9989;48.962;9.182;2022-08-01T14:23:08;31.80;63.40
19680;DHT22;9989;48.962;9.182;2022-08-01T14:25:34;31.80;63.20
19680;DHT22;9989;48.962;9.182;2022-08-01T14:27:59;31.80;63.90
19680;DHT22;9989;48.962;9.182;2022-08-01T14:30:25;31.80;63.00
19680;DHT22;9989;48.962;9.182;2022-08-01T14:32:50;31.80;63.40
19680;DHT22;9989;48.962;9.182;2022-08-01T14:35:16;32.00;64.00
19680;DHT22;9989;48.962;9.182;2022-08-01T14:37:42;32.10;63.10
19680;DHT22;9989;48.962;9.182;2022-08-01T14:40:08;32.20;63.10
19680;DHT22;9989;48.962;9.182;2022-08-01T14:42:38;32.30;62.50
19680;DHT22;9989;48.962;9.182;2022-08-01T14:45:05;32.30;61.00
19680;DHT22;9989;48.962;9.182;2022-08-01T14:47:35;32.10;61.60
19680;DHT22;9989;48.962;9.182;2022-08-01T14:50:02;32.10;61.30
19680;DHT22;9989;48.962;9.182;2022-08-01T14:52:28;32.00;61.50
19680;DHT22;9989;48.962;9.182;2022-08-01T14:54:53;32.00;61.60
19680;DHT22;9989;48.962;9.182;2022-08-01T14:57:19;32.00;62.30
19680;DHT22;9989;48.962;9.182;2022-08-01T14:59:45;32.10;61.50
19680;DHT22;9989;48.962;9.182;2022-08-01T15:02:10;32.10;60.80
19680;DHT22;9989;48.962;9.182;2022-08-01T15:04:36;32.00;60.60
19680;DHT22;9989;48.962;9.182;2022-08-01T15:07:02;31.90;60.70
19680;DHT22;9989;48.962;9.182;2022-08-01T15:09:27;31.80;61.20
19680;DHT22;9989;48.962;9.182;2022-08-01T15:11:53;31.70;61.00
19680;DHT22;9989;48.962;9.182;2022-08-01T15:14:19;31.60;61.00
19680;DHT22;9989;48.962;9.182;2022-08-01T15:17:03;31.60;61.90
19680;DHT22;9989;48.962;9.182;2022-08-01T15:19:29;31.50;62.00
19680;DHT22;9989;48.962;9.182;2022-08-01T15:21:54;31.40;61.80
19680;DHT22;9989;48.962;9.182;2022-08-01T15:24:20;31.30;61.50
19680;DHT22;9989;48.962;9.182;2022-08-01T15:26:45;31.30;62.00
19680;DHT22;9989;48.962;9.182;2022-08-01T15:29:11;31.20;62.10
19680;DHT22;9989;48.962;9.182;2022-08-01T15:31:38;31.10;61.90
19680;DHT22;9989;48.962;9.182;2022-08-01T15:34:04;31.00;62.20
19680;DHT22;9989;48.962;9.182;2022-08-01T15:36:30;31.00;62.60
19680;DHT22;9989;48.962;9.182;2022-08-01T15:38:55;30.90;62.80
19680;DHT22;9989;48.962;9.182;2022-08-01T15:41:21;30.90;62.80
19680;DHT22;9989;48.962;9.182;2022-08-01T15:43:46;30.80;62.60
19680;DHT22;9989;48.962;9.182;2022-08-01T15:46:12;30.70;62.60
19680;DHT22;9989;48.962;9.182;2022-08-01T15:48:37;30.60;63.10
19680;DHT22;9989;48.962;9.182;2022-08-01T15:51:03;30.50;63.10
19680;DHT22;9989;48.962;9.182;2022-08-01T15:53:28;30.50;63.60
19680;DHT22;9989;48.962;9.182;2022-08-01T15:55:54;30.40;64.00
19680;DHT22;9989;48.962;9.182;2022-08-01T15:58:20;30.30;64.40
19680;DHT22;9989;48.962;9.182;2022-08-01T16:00:45;30.30;64.60
19680;DHT22;9989;48.962;9.182;2022-08-01T16:03:11;30.30;64.70
19680;DHT22;9989;48.962;9.182;2022-08-01T16:05:37;30.20;64.60
19680;DHT22;9989;48.962;9.182;2022-08-01T16:08:03;30.20;64.40
19680;DHT22;9989;48.962;9.182;2022-08-01T16:10:29;30.10;64.70
19680;DHT22;9989;48.962;9.182;2022-08-01T16:12:55;30.10;64.90
19680;DHT22;9989;48.962;9.182;2022-08-01T16:15:21;30.00;64.80
19680;DHT22;9989;48.962;9.182;2022-08-01T16:17:46;30.00;65.30
19680;DHT22;9989;48.962;9.182;2022-08-01T16:20:12;30.00;65.50
19680;DHT22;9989;48.962;9.182;2022-08-01T16:22:37;29.90;65.20
19680;DHT22;9989;48.962;9.182;2022-08-01T16:25:04;29.90;65.60
19680;DHT22;9989;48.962;9.182;2022-08-01T16:27:30;29.80;65.80
19680;DHT22;9989;48.962;9.182;2022-08-01T16:29:56;29.80;65.80
19680;DHT22;9989;48.962;9.182;2022-08-01T16:32:22;29.80;65.50
19680;DHT22;9989;48.962;9.182;2022-08-01T16:34:48;29.80;65.80
19680;DHT22;9989;48.962;9.182;2022-08-01T16:37:14;29.70;65.70
19680;DHT22;9989;48.962;9.182;2022-08-01T16:39:39;29.60;65.80